AAL2320 KCLT-KDCA
Flight info
| Callsign | AAL2320 |
|---|---|
| Flight time | 0h 53m |
| Altitude | 29000 |
| Route | KILNS5 AUDII WAVES CAPSS3 |
| Aircraft | A20N/M-SDE2E3FGHIRWXY/LB1 |
Departure
| Time | 2026-04-26 18:53 |
|---|---|
| Airport | Charlotte Douglas International Airport (KCLT) |
Arrival
| Time | 2026-04-26 19:46 |
|---|---|
| Airport | Ronald Reagan Washington National Airport (KDCA) |
| Time | Latitude | Longitude | Altitude | Speed | Heading |
|---|---|---|---|---|---|
| 2026-04-26 18:14 | 35.22003 | -80.94016 | 729 ft | 0 kts | 344° |
| 2026-04-26 18:38 | 35.21993 | -80.94015 | 728 ft | 3 kts | 25° |
| 2026-04-26 18:38 | 35.21976 | -80.94025 | 728 ft | 3 kts | 27° |
| 2026-04-26 18:39 | 35.21959 | -80.94035 | 728 ft | 3 kts | 34° |
| 2026-04-26 18:39 | 35.21950 | -80.94053 | 727 ft | 1 kts | 81° |
| 2026-04-26 18:39 | 35.21950 | -80.94054 | 727 ft | 0 kts | 81° |
| 2026-04-26 18:42 | 35.21950 | -80.94053 | 727 ft | 0 kts | 81° |
| 2026-04-26 18:45 | 35.21951 | -80.94050 | 727 ft | 1 kts | 83° |
| 2026-04-26 18:45 | 35.21950 | -80.94023 | 727 ft | 5 kts | 95° |
| 2026-04-26 18:45 | 35.21949 | -80.94007 | 728 ft | 0 kts | 95° |
| 2026-04-26 18:46 | 35.21937 | -80.93992 | 730 ft | 8 kts | 139° |
| 2026-04-26 18:46 | 35.21856 | -80.93959 | 729 ft | 14 kts | 172° |
| 2026-04-26 18:46 | 35.21763 | -80.93932 | 728 ft | 13 kts | 146° |
| 2026-04-26 18:46 | 35.21690 | -80.93855 | 727 ft | 15 kts | 133° |
| 2026-04-26 18:47 | 35.21620 | -80.93756 | 727 ft | 16 kts | 127° |
| 2026-04-26 18:47 | 35.21533 | -80.93675 | 727 ft | 16 kts | 167° |
| 2026-04-26 18:47 | 35.21418 | -80.93660 | 726 ft | 17 kts | 176° |
| 2026-04-26 18:47 | 35.21293 | -80.93649 | 726 ft | 19 kts | 176° |
| 2026-04-26 18:48 | 35.21156 | -80.93637 | 723 ft | 21 kts | 177° |
| 2026-04-26 18:48 | 35.21007 | -80.93623 | 725 ft | 22 kts | 176° |
| 2026-04-26 18:48 | 35.20846 | -80.93612 | 721 ft | 24 kts | 176° |
| 2026-04-26 18:48 | 35.20675 | -80.93596 | 720 ft | 26 kts | 175° |
| 2026-04-26 18:49 | 35.20492 | -80.93581 | 722 ft | 27 kts | 176° |
| 2026-04-26 18:49 | 35.20298 | -80.93563 | 717 ft | 26 kts | 175° |
| 2026-04-26 18:49 | 35.20172 | -80.93553 | 715 ft | 14 kts | 176° |
| 2026-04-26 18:49 | 35.20153 | -80.93552 | 716 ft | 8 kts | 173° |
| 2026-04-26 18:50 | 35.20112 | -80.93533 | 715 ft | 0 kts | 137° |
| 2026-04-26 18:51 | 35.20108 | -80.93526 | 715 ft | 5 kts | 122° |
| 2026-04-26 18:51 | 35.20105 | -80.93496 | 715 ft | 4 kts | 93° |
| 2026-04-26 18:51 | 35.20112 | -80.93442 | 713 ft | 4 kts | 64° |
| 2026-04-26 18:51 | 35.20152 | -80.93418 | 715 ft | 9 kts | 0° |
| 2026-04-26 18:52 | 35.20162 | -80.93419 | 717 ft | 0 kts | 357° |
| 2026-04-26 18:52 | 35.20412 | -80.93438 | 720 ft | 76 kts | 356° |
| 2026-04-26 18:53 | 35.21193 | -80.93496 | 726 ft | 145 kts | 356° |
| 2026-04-26 18:53 | 35.22268 | -80.93672 | 1187 ft | 156 kts | 359° |
| 2026-04-26 18:53 | 35.23306 | -80.93669 | 2075 ft | 149 kts | 20° |
| 2026-04-26 18:53 | 35.24392 | -80.93217 | 2798 ft | 186 kts | 22° |
| 2026-04-26 18:54 | 35.25756 | -80.92650 | 3294 ft | 225 kts | 21° |
| 2026-04-26 18:54 | 35.27299 | -80.92029 | 4005 ft | 247 kts | 19° |
| 2026-04-26 18:54 | 35.28955 | -80.91394 | 5178 ft | 248 kts | 17° |
| 2026-04-26 18:54 | 35.30585 | -80.90620 | 6288 ft | 257 kts | 27° |
| 2026-04-26 18:55 | 35.32032 | -80.89263 | 7159 ft | 268 kts | 46° |
| 2026-04-26 18:55 | 35.32933 | -80.87254 | 7727 ft | 275 kts | 75° |
| 2026-04-26 18:55 | 35.33152 | -80.84909 | 7998 ft | 280 kts | 86° |
| 2026-04-26 18:55 | 35.33152 | -80.82519 | 8036 ft | 281 kts | 88° |
| 2026-04-26 18:56 | 35.33118 | -80.80126 | 8032 ft | 282 kts | 89° |
| 2026-04-26 18:56 | 35.33098 | -80.78538 | 8032 ft | 282 kts | 89° |
| 2026-04-26 18:56 | 35.33074 | -80.76127 | 8110 ft | 283 kts | 88° |
| 2026-04-26 18:56 | 35.33057 | -80.73696 | 8790 ft | 288 kts | 87° |
| 2026-04-26 18:57 | 35.33038 | -80.70454 | 10499 ft | 286 kts | 88° |
| 2026-04-26 18:57 | 35.33034 | -80.69624 | 10843 ft | 290 kts | 88° |
| 2026-04-26 18:57 | 35.33021 | -80.66186 | 11746 ft | 317 kts | 89° |
| 2026-04-26 18:57 | 35.33005 | -80.62521 | 13044 ft | 327 kts | 88° |
| 2026-04-26 18:58 | 35.32996 | -80.60662 | 13713 ft | 331 kts | 89° |
| 2026-04-26 18:58 | 35.32982 | -80.57813 | 14668 ft | 337 kts | 89° |
| 2026-04-26 18:58 | 35.32967 | -80.54912 | 15532 ft | 345 kts | 89° |
| 2026-04-26 18:58 | 35.32955 | -80.51919 | 16240 ft | 358 kts | 88° |
| 2026-04-26 18:59 | 35.33167 | -80.48840 | 16995 ft | 365 kts | 77° |
| 2026-04-26 18:59 | 35.33862 | -80.45835 | 17817 ft | 370 kts | 68° |
| 2026-04-26 18:59 | 35.34752 | -80.42839 | 18605 ft | 377 kts | 67° |
| 2026-04-26 18:59 | 35.35674 | -80.39841 | 19296 ft | 384 kts | 66° |
| 2026-04-26 19:00 | 35.36623 | -80.36761 | 20051 ft | 390 kts | 67° |
| 2026-04-26 19:00 | 35.37577 | -80.33643 | 20955 ft | 390 kts | 67° |
| 2026-04-26 19:00 | 35.38528 | -80.30520 | 21749 ft | 395 kts | 67° |
| 2026-04-26 19:00 | 35.39496 | -80.27334 | 22392 ft | 403 kts | 67° |
| 2026-04-26 19:01 | 35.40482 | -80.24086 | 23070 ft | 410 kts | 67° |
| 2026-04-26 19:01 | 35.41481 | -80.20784 | 23718 ft | 416 kts | 67° |
| 2026-04-26 19:01 | 35.42492 | -80.17437 | 24273 ft | 421 kts | 67° |
| 2026-04-26 19:01 | 35.43521 | -80.14051 | 24872 ft | 425 kts | 67° |
| 2026-04-26 19:02 | 35.44564 | -80.10643 | 25456 ft | 429 kts | 67° |
| 2026-04-26 19:02 | 35.45618 | -80.07197 | 26027 ft | 433 kts | 67° |
| 2026-04-26 19:02 | 35.46680 | -80.03722 | 26578 ft | 436 kts | 67° |
| 2026-04-26 19:02 | 35.47387 | -80.01408 | 26931 ft | 439 kts | 67° |
| 2026-04-26 19:03 | 35.48824 | -79.96694 | 27635 ft | 444 kts | 67° |
| 2026-04-26 19:03 | 35.49893 | -79.93184 | 28152 ft | 447 kts | 67° |
| 2026-04-26 19:03 | 35.50985 | -79.89594 | 28665 ft | 451 kts | 68° |
| 2026-04-26 19:03 | 35.52084 | -79.85974 | 29017 ft | 454 kts | 68° |
| 2026-04-26 19:04 | 35.54314 | -79.78717 | 29076 ft | 454 kts | 67° |
| 2026-04-26 19:04 | 35.56584 | -79.71467 | 29069 ft | 455 kts | 67° |
| 2026-04-26 19:05 | 35.59986 | -79.60562 | 29074 ft | 455 kts | 67° |
| 2026-04-26 19:06 | 35.62244 | -79.53299 | 29087 ft | 455 kts | 67° |
| 2026-04-26 19:06 | 35.64491 | -79.46058 | 29083 ft | 455 kts | 67° |
| 2026-04-26 19:07 | 35.66743 | -79.38781 | 29080 ft | 457 kts | 68° |
| 2026-04-26 19:07 | 35.69022 | -79.31484 | 29074 ft | 457 kts | 65° |
| 2026-04-26 19:07 | 35.70519 | -79.28048 | 29071 ft | 454 kts | 53° |
| 2026-04-26 19:08 | 35.72546 | -79.25092 | 29077 ft | 450 kts | 40° |
| 2026-04-26 19:08 | 35.77449 | -79.20347 | 29081 ft | 447 kts | 34° |
| 2026-04-26 19:09 | 35.82427 | -79.15827 | 29070 ft | 443 kts | 34° |
| 2026-04-26 19:09 | 35.87344 | -79.11337 | 29073 ft | 443 kts | 34° |
| 2026-04-26 19:10 | 35.92285 | -79.06804 | 29075 ft | 443 kts | 34° |
| 2026-04-26 19:10 | 35.97229 | -79.02258 | 29078 ft | 445 kts | 34° |
| 2026-04-26 19:11 | 36.02192 | -78.97686 | 29078 ft | 444 kts | 34° |
| 2026-04-26 19:11 | 36.07149 | -78.93112 | 29100 ft | 444 kts | 35° |
| 2026-04-26 19:12 | 36.12101 | -78.88534 | 29108 ft | 444 kts | 34° |
| 2026-04-26 19:12 | 36.17044 | -78.83958 | 29114 ft | 444 kts | 35° |
| 2026-04-26 19:13 | 36.21945 | -78.79363 | 29113 ft | 444 kts | 36° |
| 2026-04-26 19:13 | 36.26811 | -78.74680 | 29102 ft | 441 kts | 36° |
| 2026-04-26 19:14 | 36.31652 | -78.70010 | 29111 ft | 441 kts | 36° |
| 2026-04-26 19:14 | 36.36509 | -78.65323 | 29118 ft | 444 kts | 36° |
| 2026-04-26 19:15 | 36.41364 | -78.60629 | 29120 ft | 445 kts | 36° |
| 2026-04-26 19:15 | 36.46256 | -78.55891 | 29118 ft | 444 kts | 36° |
| 2026-04-26 19:16 | 36.51123 | -78.51171 | 29114 ft | 443 kts | 36° |
| 2026-04-26 19:16 | 36.55980 | -78.46453 | 29108 ft | 443 kts | 36° |
| 2026-04-26 19:17 | 36.60836 | -78.41729 | 29124 ft | 443 kts | 36° |
| 2026-04-26 19:17 | 36.65659 | -78.37028 | 29125 ft | 443 kts | 37° |
| 2026-04-26 19:18 | 36.70502 | -78.32298 | 29126 ft | 440 kts | 36° |
| 2026-04-26 19:18 | 36.75309 | -78.27597 | 29126 ft | 439 kts | 36° |
| 2026-04-26 19:19 | 36.80113 | -78.22893 | 29151 ft | 438 kts | 36° |
| 2026-04-26 19:19 | 36.84908 | -78.18190 | 29149 ft | 438 kts | 36° |
| 2026-04-26 19:20 | 36.89700 | -78.13480 | 29143 ft | 438 kts | 36° |
| 2026-04-26 19:20 | 36.94441 | -78.08812 | 29123 ft | 436 kts | 37° |
| 2026-04-26 19:21 | 36.99204 | -78.04116 | 29126 ft | 436 kts | 37° |
| 2026-04-26 19:21 | 37.03959 | -77.99421 | 29129 ft | 435 kts | 37° |
| 2026-04-26 19:22 | 37.08714 | -77.94717 | 29127 ft | 435 kts | 37° |
| 2026-04-26 19:22 | 37.13494 | -77.89982 | 29127 ft | 437 kts | 36° |
| 2026-04-26 19:23 | 37.18228 | -77.85285 | 29127 ft | 437 kts | 37° |
| 2026-04-26 19:23 | 37.22998 | -77.80542 | 29139 ft | 437 kts | 36° |
| 2026-04-26 19:24 | 37.27761 | -77.75800 | 29144 ft | 437 kts | 37° |
| 2026-04-26 19:24 | 37.34838 | -77.68737 | 27988 ft | 426 kts | 37° |
| 2026-04-26 19:25 | 37.37152 | -77.66425 | 27395 ft | 422 kts | 37° |
| 2026-04-26 19:25 | 37.38670 | -77.64907 | 27013 ft | 420 kts | 37° |
| 2026-04-26 19:25 | 37.41710 | -77.61864 | 26244 ft | 415 kts | 37° |
| 2026-04-26 19:25 | 37.43960 | -77.59610 | 25673 ft | 412 kts | 37° |
| 2026-04-26 19:26 | 37.46191 | -77.57372 | 25110 ft | 408 kts | 36° |
| 2026-04-26 19:26 | 37.48368 | -77.55187 | 24557 ft | 405 kts | 36° |
| 2026-04-26 19:26 | 37.50566 | -77.52980 | 23996 ft | 401 kts | 37° |
| 2026-04-26 19:26 | 37.52723 | -77.50812 | 23362 ft | 391 kts | 37° |
| 2026-04-26 19:27 | 37.54819 | -77.48705 | 22783 ft | 377 kts | 37° |
| 2026-04-26 19:27 | 37.56840 | -77.46679 | 22238 ft | 364 kts | 36° |
| 2026-04-26 19:27 | 37.58950 | -77.45012 | 21802 ft | 358 kts | 24° |
| 2026-04-26 19:27 | 37.61331 | -77.43961 | 21403 ft | 366 kts | 15° |
| 2026-04-26 19:28 | 37.63805 | -77.43166 | 21160 ft | 367 kts | 13° |
| 2026-04-26 19:28 | 37.66294 | -77.42413 | 21015 ft | 366 kts | 13° |
| 2026-04-26 19:28 | 37.68803 | -77.41654 | 20653 ft | 372 kts | 13° |
| 2026-04-26 19:28 | 37.71311 | -77.40891 | 19729 ft | 369 kts | 13° |
| 2026-04-26 19:29 | 37.73729 | -77.40150 | 19268 ft | 354 kts | 13° |
| 2026-04-26 19:29 | 37.76110 | -77.39418 | 18890 ft | 351 kts | 13° |
| 2026-04-26 19:29 | 37.78480 | -77.38687 | 18483 ft | 348 kts | 13° |
| 2026-04-26 19:29 | 37.80819 | -77.37965 | 18044 ft | 345 kts | 13° |
| 2026-04-26 19:30 | 37.83142 | -77.37247 | 17643 ft | 342 kts | 13° |
| 2026-04-26 19:30 | 37.85450 | -77.36533 | 17137 ft | 340 kts | 13° |
| 2026-04-26 19:30 | 37.87743 | -77.35823 | 16676 ft | 337 kts | 13° |
| 2026-04-26 19:30 | 37.89252 | -77.35357 | 16424 ft | 336 kts | 13° |
| 2026-04-26 19:31 | 37.92245 | -77.34435 | 15908 ft | 333 kts | 13° |
| 2026-04-26 19:31 | 37.94491 | -77.33744 | 15526 ft | 332 kts | 13° |
| 2026-04-26 19:31 | 37.96732 | -77.33054 | 15147 ft | 330 kts | 13° |
| 2026-04-26 19:31 | 37.98960 | -77.32368 | 14763 ft | 328 kts | 13° |
| 2026-04-26 19:32 | 38.01175 | -77.31685 | 14386 ft | 327 kts | 13° |
| 2026-04-26 19:32 | 38.03380 | -77.31005 | 14012 ft | 325 kts | 13° |
| 2026-04-26 19:32 | 38.05575 | -77.30328 | 13609 ft | 323 kts | 13° |
| 2026-04-26 19:32 | 38.07756 | -77.29651 | 13233 ft | 322 kts | 14° |
| 2026-04-26 19:33 | 38.09926 | -77.28971 | 12860 ft | 320 kts | 14° |
| 2026-04-26 19:33 | 38.12088 | -77.28293 | 12488 ft | 319 kts | 14° |
| 2026-04-26 19:33 | 38.14240 | -77.27616 | 12120 ft | 318 kts | 14° |
| 2026-04-26 19:33 | 38.16384 | -77.26943 | 11762 ft | 317 kts | 14° |
| 2026-04-26 19:34 | 38.18483 | -77.26282 | 11477 ft | 309 kts | 13° |
| 2026-04-26 19:34 | 38.20522 | -77.25639 | 11228 ft | 296 kts | 13° |
| 2026-04-26 19:34 | 38.22472 | -77.25020 | 10909 ft | 280 kts | 13° |
| 2026-04-26 19:34 | 38.24345 | -77.24425 | 10586 ft | 277 kts | 13° |
| 2026-04-26 19:35 | 38.26223 | -77.23829 | 10256 ft | 278 kts | 13° |
| 2026-04-26 19:35 | 38.28097 | -77.23233 | 9848 ft | 277 kts | 13° |
| 2026-04-26 19:35 | 38.29961 | -77.22641 | 9430 ft | 274 kts | 14° |
| 2026-04-26 19:35 | 38.31801 | -77.22056 | 9113 ft | 271 kts | 14° |
| 2026-04-26 19:36 | 38.33572 | -77.21271 | 8865 ft | 270 kts | 26° |
| 2026-04-26 19:36 | 38.34096 | -77.20880 | 8708 ft | 270 kts | 32° |
| 2026-04-26 19:36 | 38.36502 | -77.18369 | 8053 ft | 267 kts | 40° |
| 2026-04-26 19:36 | 38.37896 | -77.16775 | 7682 ft | 265 kts | 40° |
| 2026-04-26 19:37 | 38.39247 | -77.15231 | 7345 ft | 263 kts | 40° |
| 2026-04-26 19:37 | 38.40606 | -77.13684 | 6995 ft | 261 kts | 40° |
| 2026-04-26 19:37 | 38.41959 | -77.12151 | 6644 ft | 258 kts | 40° |
| 2026-04-26 19:37 | 38.43301 | -77.10633 | 6278 ft | 256 kts | 40° |
| 2026-04-26 19:38 | 38.44631 | -77.09129 | 5924 ft | 255 kts | 40° |
| 2026-04-26 19:38 | 38.45954 | -77.07634 | 5586 ft | 254 kts | 41° |
| 2026-04-26 19:38 | 38.47272 | -77.06145 | 5252 ft | 252 kts | 41° |
| 2026-04-26 19:38 | 38.48583 | -77.04661 | 4913 ft | 250 kts | 41° |
| 2026-04-26 19:39 | 38.49886 | -77.03187 | 4565 ft | 250 kts | 41° |
| 2026-04-26 19:39 | 38.51258 | -77.01835 | 4226 ft | 250 kts | 30° |
| 2026-04-26 19:39 | 38.52887 | -77.01121 | 3893 ft | 249 kts | 8° |
| 2026-04-26 19:39 | 38.54610 | -77.01068 | 3554 ft | 248 kts | 359° |
| 2026-04-26 19:40 | 38.56308 | -77.01185 | 3219 ft | 246 kts | 358° |
| 2026-04-26 19:40 | 38.58012 | -77.01324 | 2888 ft | 245 kts | 358° |
| 2026-04-26 19:40 | 38.59709 | -77.01396 | 2584 ft | 244 kts | 1° |
| 2026-04-26 19:40 | 38.61412 | -77.01411 | 2493 ft | 244 kts | 360° |
| 2026-04-26 19:41 | 38.63105 | -77.01542 | 2480 ft | 244 kts | 357° |
| 2026-04-26 19:41 | 38.64796 | -77.01716 | 2486 ft | 244 kts | 356° |
| 2026-04-26 19:41 | 38.66459 | -77.01890 | 2487 ft | 230 kts | 357° |
| 2026-04-26 19:41 | 38.66990 | -77.01946 | 2488 ft | 224 kts | 357° |
| 2026-04-26 19:42 | 38.69405 | -77.02197 | 2472 ft | 196 kts | 357° |
| 2026-04-26 19:42 | 38.70715 | -77.02328 | 2478 ft | 183 kts | 357° |
| 2026-04-26 19:42 | 38.71977 | -77.02452 | 2475 ft | 179 kts | 357° |
| 2026-04-26 19:42 | 38.73176 | -77.02569 | 2331 ft | 169 kts | 356° |
| 2026-04-26 19:43 | 38.74341 | -77.02686 | 2050 ft | 166 kts | 358° |
| 2026-04-26 19:43 | 38.75479 | -77.02801 | 1789 ft | 161 kts | 358° |
| 2026-04-26 19:43 | 38.76567 | -77.02911 | 1565 ft | 150 kts | 359° |
| 2026-04-26 19:43 | 38.77550 | -77.03011 | 1376 ft | 137 kts | 357° |
| 2026-04-26 19:44 | 38.78464 | -77.03102 | 1186 ft | 128 kts | 358° |
| 2026-04-26 19:44 | 38.79331 | -77.03189 | 1015 ft | 123 kts | 359° |
| 2026-04-26 19:44 | 38.80150 | -77.03272 | 849 ft | 113 kts | 359° |
| 2026-04-26 19:44 | 38.80927 | -77.03349 | 696 ft | 114 kts | 358° |
| 2026-04-26 19:45 | 38.81717 | -77.03429 | 545 ft | 113 kts | 358° |
| 2026-04-26 19:45 | 38.82500 | -77.03508 | 379 ft | 111 kts | 357° |
| 2026-04-26 19:45 | 38.83266 | -77.03585 | 232 ft | 110 kts | 358° |
| 2026-04-26 19:45 | 38.84043 | -77.03663 | 54 ft | 114 kts | 358° |
| 2026-04-26 19:46 | 38.84789 | -77.03744 | 27 ft | 90 kts | 357° |
| 2026-04-26 19:46 | 38.85139 | -77.03778 | 27 ft | 63 kts | 352° |
| 2026-04-26 19:46 | 38.85263 | -77.03898 | 24 ft | 0 kts | 293° |
| 2026-04-26 19:47 | 38.85268 | -77.03907 | 24 ft | 2 kts | 309° |
| 2026-04-26 19:47 | 38.85318 | -77.03935 | 27 ft | 10 kts | 345° |
| 2026-04-26 19:47 | 38.85342 | -77.03981 | 26 ft | 10 kts | 277° |
| 2026-04-26 19:48 | 38.85328 | -77.04070 | 28 ft | 10 kts | 253° |
| 2026-04-26 19:48 | 38.85304 | -77.04152 | 28 ft | 7 kts | 232° |
| 2026-04-26 19:48 | 38.85266 | -77.04163 | 28 ft | 6 kts | 174° |
| 2026-04-26 19:48 | 38.85253 | -77.04161 | 27 ft | 0 kts | 173° |